createdAt,value
2017-12-26T00:00:30.988Z,1002.29
2017-12-26T00:01:30.975Z,1002.33
2017-12-26T00:02:30.962Z,1002.25
2017-12-26T00:03:30.949Z,1002.27
2017-12-26T00:04:30.935Z,1002.15
2017-12-26T00:05:30.921Z,1002.07
2017-12-26T00:06:30.913Z,1002.07
2017-12-26T00:07:30.899Z,1002.05
2017-12-26T00:08:30.886Z,1002.17
2017-12-26T00:09:30.873Z,1002.00
2017-12-26T00:10:30.860Z,1002.03
2017-12-26T00:11:30.846Z,1002.03
2017-12-26T00:12:30.833Z,1001.90
2017-12-26T00:13:30.821Z,1001.91
2017-12-26T00:14:30.804Z,1001.92
2017-12-26T00:15:30.787Z,1001.92
2017-12-26T00:16:30.773Z,1001.79
2017-12-26T00:17:30.761Z,1001.75
2017-12-26T00:18:30.754Z,1001.79
2017-12-26T00:19:30.733Z,1001.72
2017-12-26T00:20:30.719Z,1001.77
2017-12-26T00:21:30.707Z,1001.67
2017-12-26T00:22:30.696Z,1001.71
2017-12-26T00:23:30.684Z,1001.68
2017-12-26T00:24:30.671Z,1001.61
2017-12-26T00:25:30.656Z,1001.55
2017-12-26T00:26:30.642Z,1001.48
2017-12-26T00:27:30.629Z,1001.51
2017-12-26T00:28:30.616Z,1001.49
2017-12-26T00:29:30.603Z,1001.53
2017-12-26T00:30:30.585Z,1001.47
2017-12-26T00:31:30.570Z,1001.38
2017-12-26T00:32:30.558Z,1001.30
2017-12-26T00:33:30.544Z,1001.36
2017-12-26T00:34:30.531Z,1001.31
2017-12-26T00:35:30.516Z,1001.40
2017-12-26T00:36:30.504Z,1001.27
2017-12-26T00:37:30.490Z,1001.14
2017-12-26T00:38:30.480Z,1001.07
2017-12-26T00:39:30.469Z,1001.07
2017-12-26T00:40:30.453Z,1001.00
2017-12-26T00:41:30.439Z,1001.05
2017-12-26T00:42:30.425Z,1001.08
2017-12-26T00:43:30.412Z,1000.97
2017-12-26T00:44:30.398Z,1001.06
2017-12-26T00:45:30.385Z,1001.09
2017-12-26T00:46:30.367Z,1000.94
2017-12-26T00:47:30.354Z,1000.90
2017-12-26T00:48:30.339Z,1000.90
2017-12-26T00:49:30.350Z,1000.85
2017-12-26T00:50:30.312Z,1000.72
2017-12-26T00:51:30.299Z,1000.81
2017-12-26T00:52:30.285Z,1000.84
2017-12-26T00:53:30.272Z,1000.74
2017-12-26T00:54:30.263Z,1000.68
2017-12-26T00:55:30.247Z,1000.67
2017-12-26T00:56:30.237Z,1000.59
2017-12-26T00:57:30.222Z,1000.77
2017-12-26T00:58:30.207Z,1000.60
2017-12-26T00:59:30.193Z,1000.52
2017-12-26T01:00:30.180Z,1000.53
2017-12-26T01:01:30.167Z,1000.52
2017-12-26T01:02:30.149Z,1000.55
2017-12-26T01:03:30.134Z,1000.46
2017-12-26T01:04:30.120Z,1000.30
2017-12-26T01:05:30.114Z,1000.44
2017-12-26T01:06:30.095Z,1000.45
2017-12-26T01:07:30.079Z,1000.45
2017-12-26T01:08:30.066Z,1000.41
2017-12-26T01:09:30.061Z,1000.39
2017-12-26T01:10:30.044Z,1000.33
2017-12-26T01:11:30.036Z,1000.50
2017-12-26T01:12:30.020Z,1000.42
2017-12-26T01:13:30.006Z,1000.39
2017-12-26T01:14:29.989Z,1000.45
2017-12-26T01:15:29.976Z,1000.40
2017-12-26T01:16:29.962Z,1000.45
2017-12-26T01:17:29.948Z,1000.49
2017-12-26T01:18:29.930Z,1000.33
2017-12-26T01:19:29.916Z,1000.31
2017-12-26T01:20:29.903Z,1000.34
2017-12-26T01:21:29.892Z,1000.35
2017-12-26T01:22:29.876Z,1000.28
2017-12-26T01:23:29.863Z,1000.31
2017-12-26T01:24:29.849Z,1000.38
2017-12-26T01:25:29.835Z,1000.30
2017-12-26T01:26:29.826Z,1000.17
2017-12-26T01:27:29.812Z,1000.26
2017-12-26T01:28:29.805Z,1000.29
2017-12-26T01:29:29.786Z,1000.09
2017-12-26T01:30:29.772Z,1000.15
2017-12-26T01:31:29.756Z,1000.15
2017-12-26T01:32:29.744Z,1000.14
2017-12-26T01:33:29.731Z,1000.13
2017-12-26T01:34:29.714Z,1000.13
2017-12-26T01:35:29.699Z,1000.11
2017-12-26T01:36:29.684Z,1000.06
2017-12-26T01:37:29.672Z,1000.08
2017-12-26T01:38:29.658Z,1000.04
2017-12-26T01:39:29.645Z,1000.03
2017-12-26T01:40:29.678Z,1000.07
2017-12-26T01:41:29.619Z,1000.09
2017-12-26T01:42:29.609Z,1000.12
2017-12-26T01:43:29.595Z,1000.10
2017-12-26T01:44:29.581Z,1000.04
2017-12-26T01:45:29.567Z,1000.04
2017-12-26T01:46:29.554Z,1000.13
2017-12-26T01:47:29.541Z,1000.05
2017-12-26T01:48:29.528Z,1000.02
2017-12-26T01:49:29.514Z,999.98
2017-12-26T01:50:29.497Z,1000.00
2017-12-26T01:51:29.489Z,999.95
2017-12-26T01:52:29.470Z,999.96
2017-12-26T01:53:29.456Z,999.97
2017-12-26T01:54:29.447Z,999.96
2017-12-26T01:55:29.433Z,999.88
2017-12-26T01:56:29.420Z,999.88
2017-12-26T01:57:29.406Z,999.85
2017-12-26T01:58:29.389Z,999.82
2017-12-26T01:59:29.376Z,999.73
2017-12-26T02:00:29.361Z,999.67
2017-12-26T02:01:29.348Z,999.70
2017-12-26T02:02:29.335Z,999.65
2017-12-26T02:03:29.320Z,999.64
2017-12-26T02:04:29.308Z,999.68
2017-12-26T02:05:29.293Z,999.57
2017-12-26T02:06:29.284Z,999.56
2017-12-26T02:07:29.270Z,999.53
2017-12-26T02:08:29.258Z,999.45
2017-12-26T02:09:29.245Z,999.41
2017-12-26T02:10:29.234Z,999.40
2017-12-26T02:11:29.218Z,999.45
2017-12-26T02:12:29.205Z,999.32
2017-12-26T02:13:29.191Z,999.43
2017-12-26T02:14:29.174Z,999.39
2017-12-26T02:15:29.159Z,999.40
2017-12-26T02:16:29.146Z,999.37
2017-12-26T02:17:29.133Z,999.35
2017-12-26T02:18:29.121Z,999.29
2017-12-26T02:19:29.105Z,999.31
2017-12-26T02:20:29.093Z,999.35
2017-12-26T02:21:29.080Z,999.30
2017-12-26T02:22:29.071Z,999.27
2017-12-26T02:23:29.057Z,999.30
2017-12-26T02:24:29.045Z,999.32
2017-12-26T02:25:29.033Z,999.21
2017-12-26T02:26:29.018Z,999.23
2017-12-26T02:27:29.004Z,999.28
2017-12-26T02:28:28.991Z,999.15
2017-12-26T02:29:28.977Z,999.18
2017-12-26T02:30:28.961Z,999.11
2017-12-26T02:31:28.946Z,999.16
2017-12-26T02:32:28.936Z,999.09
2017-12-26T02:33:28.921Z,999.06
2017-12-26T02:34:28.907Z,999.01
2017-12-26T02:35:28.894Z,999.04
2017-12-26T02:36:28.880Z,998.90
2017-12-26T02:37:28.869Z,998.92
2017-12-26T02:38:28.859Z,998.93
2017-12-26T02:39:28.844Z,998.93
2017-12-26T02:40:28.833Z,998.90
2017-12-26T02:41:28.820Z,998.89
2017-12-26T02:42:28.806Z,998.81
2017-12-26T02:43:28.793Z,998.77
2017-12-26T02:44:28.780Z,998.73
2017-12-26T02:45:28.766Z,998.75
2017-12-26T02:46:28.749Z,998.73
2017-12-26T02:47:28.741Z,998.65
2017-12-26T02:48:28.723Z,998.60
2017-12-26T02:49:28.711Z,998.68
2017-12-26T02:50:28.698Z,998.59
2017-12-26T02:51:28.684Z,998.57
2017-12-26T02:52:28.670Z,998.49
2017-12-26T02:53:28.658Z,998.48
2017-12-26T02:54:28.649Z,998.52
2017-12-26T02:55:28.636Z,998.36
2017-12-26T02:56:28.623Z,998.39
2017-12-26T02:57:28.616Z,998.31
2017-12-26T02:58:28.593Z,998.27
2017-12-26T02:59:28.579Z,998.29
2017-12-26T03:00:28.566Z,998.27
2017-12-26T03:01:28.553Z,998.14
2017-12-26T03:02:28.545Z,998.18
2017-12-26T03:03:28.532Z,998.12
2017-12-26T03:04:28.519Z,998.13
2017-12-26T03:05:28.507Z,998.04
2017-12-26T03:06:28.493Z,998.06
2017-12-26T03:07:28.479Z,997.97
2017-12-26T03:08:28.467Z,998.07
2017-12-26T03:09:28.453Z,998.03
2017-12-26T03:10:28.438Z,997.97
2017-12-26T03:11:28.423Z,997.91
2017-12-26T03:12:28.410Z,997.82
2017-12-26T03:13:28.397Z,997.77
2017-12-26T03:14:28.386Z,997.77
2017-12-26T03:15:28.371Z,997.65
2017-12-26T03:16:28.359Z,997.74
2017-12-26T03:17:28.346Z,997.73
2017-12-26T03:18:28.337Z,997.66
2017-12-26T03:19:28.324Z,997.70
2017-12-26T03:20:28.312Z,997.68
2017-12-26T03:21:28.303Z,997.53
2017-12-26T03:22:28.288Z,997.53
2017-12-26T03:23:28.275Z,997.51
2017-12-26T03:24:28.261Z,997.53
2017-12-26T03:25:28.248Z,997.50
2017-12-26T03:26:28.233Z,997.44
2017-12-26T03:27:28.218Z,997.35
2017-12-26T03:28:28.207Z,997.26
2017-12-26T03:29:28.195Z,997.27
2017-12-26T03:30:28.184Z,997.25
2017-12-26T03:31:28.170Z,997.21
2017-12-26T03:32:28.156Z,997.18
2017-12-26T03:33:28.144Z,997.25
2017-12-26T03:34:28.136Z,997.12
2017-12-26T03:35:28.122Z,997.14
2017-12-26T03:36:28.110Z,997.15
2017-12-26T03:37:28.102Z,997.14
2017-12-26T03:38:28.086Z,997.08
2017-12-26T03:39:28.072Z,997.08
2017-12-26T03:40:28.060Z,996.98
2017-12-26T03:41:28.047Z,996.91
2017-12-26T03:42:28.031Z,996.92
2017-12-26T03:43:28.017Z,997.02
2017-12-26T03:44:28.006Z,997.04
2017-12-26T03:45:27.992Z,997.16
2017-12-26T03:46:27.982Z,997.07
2017-12-26T03:47:27.968Z,996.99
2017-12-26T03:48:27.955Z,997.10
2017-12-26T03:49:27.944Z,997.00
2017-12-26T03:50:27.936Z,996.95
2017-12-26T03:51:27.926Z,996.98
2017-12-26T03:52:27.909Z,997.02
2017-12-26T03:53:27.900Z,996.98
2017-12-26T03:54:27.885Z,996.90
2017-12-26T03:55:27.873Z,996.73
2017-12-26T03:56:27.859Z,996.74
2017-12-26T03:57:27.848Z,996.83
2017-12-26T03:58:27.833Z,996.75
2017-12-26T03:59:27.818Z,996.69
2017-12-26T04:00:27.806Z,996.67
2017-12-26T04:01:27.794Z,996.66
2017-12-26T04:02:27.790Z,996.60
2017-12-26T04:03:27.776Z,996.53
2017-12-26T04:04:27.766Z,996.55
2017-12-26T04:05:27.800Z,996.63
2017-12-26T04:06:27.732Z,996.60
2017-12-26T04:07:27.719Z,996.65
2017-12-26T04:08:27.711Z,996.63
2017-12-26T04:09:27.694Z,996.53
2017-12-26T04:10:27.683Z,996.46
2017-12-26T04:11:27.669Z,996.57
2017-12-26T04:12:27.657Z,996.57
2017-12-26T04:13:27.646Z,996.52
2017-12-26T04:14:27.637Z,996.42
2017-12-26T04:15:27.624Z,996.55
2017-12-26T04:16:27.611Z,996.59
2017-12-26T04:17:27.603Z,996.57
2017-12-26T04:18:27.588Z,996.43
2017-12-26T04:19:27.573Z,996.40
2017-12-26T04:20:27.563Z,996.47
2017-12-26T04:21:27.550Z,996.38
2017-12-26T04:22:27.535Z,996.40
2017-12-26T04:23:27.522Z,996.34
2017-12-26T04:24:27.508Z,996.29
2017-12-26T04:25:27.497Z,996.25
2017-12-26T04:26:27.485Z,996.22
2017-12-26T04:27:27.470Z,996.21
2017-12-26T04:28:27.459Z,996.20
2017-12-26T04:29:27.447Z,996.14
2017-12-26T04:30:27.440Z,996.12
2017-12-26T04:31:27.429Z,996.04
2017-12-26T04:32:27.416Z,996.20
2017-12-26T04:33:27.403Z,996.07
2017-12-26T04:34:27.391Z,996.13
2017-12-26T04:35:27.378Z,996.13
2017-12-26T04:36:27.366Z,996.02
2017-12-26T04:37:27.354Z,995.90
2017-12-26T04:38:27.337Z,995.87
2017-12-26T04:39:27.324Z,995.85
2017-12-26T04:40:27.312Z,995.86
2017-12-26T04:41:27.301Z,995.90
2017-12-26T04:42:27.289Z,995.83
2017-12-26T04:43:27.274Z,995.78
2017-12-26T04:44:27.266Z,995.63
2017-12-26T04:45:27.251Z,995.66
2017-12-26T04:46:27.242Z,995.74
2017-12-26T04:47:27.230Z,995.62
2017-12-26T04:48:27.219Z,995.59
2017-12-26T04:49:27.206Z,995.73
2017-12-26T04:50:27.195Z,995.74
2017-12-26T04:51:27.181Z,995.67
2017-12-26T04:52:27.169Z,995.74
2017-12-26T04:53:27.157Z,995.69
2017-12-26T04:54:27.140Z,995.61
2017-12-26T04:55:27.129Z,995.66
2017-12-26T04:56:27.117Z,995.64
2017-12-26T04:57:27.104Z,995.65
2017-12-26T04:58:27.093Z,995.57
2017-12-26T04:59:27.081Z,995.57
2017-12-26T05:00:27.067Z,995.55
2017-12-26T05:01:27.055Z,995.57
2017-12-26T05:02:27.049Z,995.50
2017-12-26T05:03:27.035Z,995.54
2017-12-26T05:04:27.023Z,995.45
2017-12-26T05:05:27.012Z,995.40
2017-12-26T05:06:26.996Z,995.34
2017-12-26T05:07:26.985Z,995.32
2017-12-26T05:08:26.972Z,995.31
2017-12-26T05:09:26.960Z,995.29
2017-12-26T05:10:26.953Z,995.26
2017-12-26T05:11:26.941Z,995.24
2017-12-26T05:12:26.928Z,995.21
2017-12-26T05:13:26.916Z,995.16
2017-12-26T05:14:26.905Z,995.15
2017-12-26T05:15:26.892Z,995.10
2017-12-26T05:16:26.882Z,995.15
2017-12-26T05:17:26.869Z,995.12
2017-12-26T05:18:26.854Z,995.19
2017-12-26T05:19:26.841Z,995.05
2017-12-26T05:20:26.830Z,995.04
2017-12-26T05:21:26.818Z,995.20
2017-12-26T05:22:26.806Z,995.15
2017-12-26T05:23:26.795Z,995.16
2017-12-26T05:24:26.784Z,995.20
2017-12-26T05:25:26.772Z,995.10
2017-12-26T05:26:26.765Z,995.08
2017-12-26T05:27:26.753Z,995.05
2017-12-26T05:28:26.741Z,995.10
2017-12-26T05:29:26.731Z,995.05
2017-12-26T05:30:26.719Z,995.06
2017-12-26T05:31:26.706Z,995.06
2017-12-26T05:32:26.696Z,994.98
2017-12-26T05:33:26.685Z,995.00
2017-12-26T05:34:26.669Z,995.03
2017-12-26T05:35:26.659Z,995.02
2017-12-26T05:36:26.646Z,995.07
2017-12-26T05:37:26.634Z,994.93
2017-12-26T05:38:26.624Z,994.92
2017-12-26T05:39:26.612Z,994.89
2017-12-26T05:40:26.600Z,994.98
2017-12-26T05:41:26.589Z,995.03
2017-12-26T05:42:26.582Z,994.99
2017-12-26T05:43:26.570Z,994.98
2017-12-26T05:44:26.559Z,995.08
2017-12-26T05:45:26.547Z,995.03
2017-12-26T05:46:26.536Z,995.08
2017-12-26T05:47:26.524Z,995.11
2017-12-26T05:48:26.514Z,995.01
2017-12-26T05:49:26.503Z,995.08
2017-12-26T05:50:26.486Z,995.11
2017-12-26T05:51:26.477Z,995.08
2017-12-26T05:52:26.464Z,995.13
2017-12-26T05:53:26.453Z,995.22
2017-12-26T05:54:26.444Z,995.19
2017-12-26T05:55:26.429Z,995.17
2017-12-26T05:56:26.417Z,995.17
2017-12-26T05:57:26.407Z,995.15
2017-12-26T05:58:26.399Z,995.16
2017-12-26T05:59:26.388Z,995.18
2017-12-26T06:00:26.375Z,995.30
2017-12-26T06:01:26.365Z,995.24
2017-12-26T06:02:26.354Z,995.25
2017-12-26T06:03:26.342Z,995.15
2017-12-26T06:04:26.330Z,995.23
2017-12-26T06:05:26.318Z,995.27
2017-12-26T06:06:26.304Z,995.31
2017-12-26T06:07:26.291Z,995.34
2017-12-26T06:08:26.280Z,995.39
2017-12-26T06:09:26.268Z,995.38
2017-12-26T06:10:26.261Z,995.42
2017-12-26T06:11:26.250Z,995.42
2017-12-26T06:12:26.238Z,995.45
2017-12-26T06:13:26.226Z,995.45
2017-12-26T06:14:26.211Z,995.53
2017-12-26T06:15:26.197Z,995.49
2017-12-26T06:16:26.187Z,995.60
2017-12-26T06:17:26.176Z,995.47
2017-12-26T06:18:26.167Z,995.59
2017-12-26T06:19:26.152Z,995.61
2017-12-26T06:20:26.141Z,995.57
2017-12-26T06:21:26.130Z,995.62
2017-12-26T06:22:26.121Z,995.61
2017-12-26T06:23:26.110Z,995.66
2017-12-26T06:24:26.099Z,995.72
2017-12-26T06:25:26.086Z,995.66
2017-12-26T06:26:26.076Z,995.72
2017-12-26T06:27:26.063Z,995.61
2017-12-26T06:28:26.052Z,995.75
2017-12-26T06:29:26.041Z,995.68
2017-12-26T06:30:26.026Z,995.68
2017-12-26T06:31:26.012Z,995.73
2017-12-26T06:32:26.001Z,995.80
2017-12-26T06:33:25.991Z,995.78
2017-12-26T06:34:25.980Z,995.78
2017-12-26T06:35:25.970Z,995.85
2017-12-26T06:36:25.961Z,995.70
2017-12-26T06:37:25.943Z,995.73
2017-12-26T06:38:25.937Z,995.72
2017-12-26T06:39:25.924Z,995.68
2017-12-26T06:40:25.914Z,995.65
2017-12-26T06:41:25.901Z,995.78
2017-12-26T06:42:25.892Z,995.63
2017-12-26T06:43:25.879Z,995.74
2017-12-26T06:44:25.867Z,995.73
2017-12-26T06:45:25.855Z,995.72
2017-12-26T06:46:25.840Z,995.75
2017-12-26T06:47:25.827Z,995.78
2017-12-26T06:48:25.815Z,995.84
2017-12-26T06:49:25.805Z,995.83
2017-12-26T06:50:25.795Z,995.79
2017-12-26T06:51:25.783Z,995.79
2017-12-26T06:52:25.771Z,995.84
2017-12-26T06:53:25.760Z,995.94
2017-12-26T06:54:25.752Z,995.87
2017-12-26T06:55:25.742Z,995.86
2017-12-26T06:56:25.729Z,995.86
2017-12-26T06:57:25.718Z,995.96
2017-12-26T06:58:25.706Z,995.96
2017-12-26T06:59:25.693Z,996.00
2017-12-26T07:00:25.683Z,995.94
2017-12-26T07:01:25.671Z,995.89
2017-12-26T07:02:25.658Z,995.99
2017-12-26T07:03:25.643Z,995.89
2017-12-26T07:04:25.634Z,996.20
2017-12-26T07:05:25.621Z,996.00
2017-12-26T07:06:25.609Z,996.06
2017-12-26T07:07:25.597Z,995.98
2017-12-26T07:08:25.586Z,996.06
2017-12-26T07:09:25.574Z,996.08
2017-12-26T07:10:25.567Z,996.10
2017-12-26T07:11:25.555Z,996.17
2017-12-26T07:12:25.543Z,996.13
2017-12-26T07:13:25.532Z,996.06
2017-12-26T07:14:25.518Z,996.08
2017-12-26T07:15:25.504Z,996.14
2017-12-26T07:16:25.493Z,996.05
2017-12-26T07:17:25.482Z,996.05
2017-12-26T07:18:25.481Z,996.07
2017-12-26T07:19:25.461Z,996.02
2017-12-26T07:20:25.451Z,996.13
2017-12-26T07:21:25.440Z,996.02
2017-12-26T07:22:25.429Z,996.07
2017-12-26T07:23:25.415Z,996.13
2017-12-26T07:24:25.404Z,996.09
2017-12-26T07:25:25.394Z,995.96
2017-12-26T07:26:25.377Z,996.09
2017-12-26T07:27:25.364Z,996.12
2017-12-26T07:28:25.353Z,996.20
2017-12-26T07:29:25.342Z,996.13
2017-12-26T07:30:25.330Z,996.12
2017-12-26T07:31:25.319Z,996.10
2017-12-26T07:32:25.307Z,996.14
2017-12-26T07:33:25.294Z,996.14
2017-12-26T07:34:25.289Z,996.21
2017-12-26T07:35:25.275Z,996.25
2017-12-26T07:36:25.313Z,996.35
2017-12-26T07:37:25.253Z,996.24
2017-12-26T07:38:25.242Z,996.16
2017-12-26T07:39:25.230Z,996.28
2017-12-26T07:40:25.218Z,996.33
2017-12-26T07:41:25.206Z,996.37
2017-12-26T07:42:25.191Z,996.29
2017-12-26T07:43:25.178Z,996.40
2017-12-26T07:44:25.167Z,996.52
2017-12-26T07:45:25.156Z,996.47
2017-12-26T07:46:25.144Z,996.50
2017-12-26T07:47:25.133Z,996.48
2017-12-26T07:48:25.124Z,996.56
2017-12-26T07:49:25.108Z,996.56
2017-12-26T07:50:25.102Z,996.64
2017-12-26T07:51:25.090Z,996.61
2017-12-26T07:52:25.079Z,996.58
2017-12-26T07:53:25.068Z,996.64
2017-12-26T07:54:25.055Z,996.67
2017-12-26T07:55:25.047Z,996.62
2017-12-26T07:56:25.032Z,996.59
2017-12-26T07:57:25.019Z,996.62
2017-12-26T07:58:25.004Z,996.68
2017-12-26T07:59:24.992Z,996.67
2017-12-26T08:00:24.981Z,996.81
2017-12-26T08:01:24.969Z,996.73
2017-12-26T08:02:24.957Z,996.78
2017-12-26T08:03:24.944Z,996.77
2017-12-26T08:04:24.937Z,996.79
2017-12-26T08:05:24.922Z,996.80
2017-12-26T08:06:24.921Z,996.81
2017-12-26T08:07:24.904Z,996.67
2017-12-26T08:08:24.893Z,996.75
2017-12-26T08:09:24.880Z,996.72
2017-12-26T08:10:24.869Z,996.68
2017-12-26T08:11:24.858Z,996.67
2017-12-26T08:12:24.845Z,996.74
2017-12-26T08:13:24.835Z,996.69
2017-12-26T08:14:24.816Z,996.61
2017-12-26T08:15:24.808Z,996.71
2017-12-26T08:16:24.793Z,996.72
2017-12-26T08:17:24.782Z,996.74
2017-12-26T08:18:24.774Z,996.82
2017-12-26T08:19:24.762Z,996.77
2017-12-26T08:20:24.750Z,996.87
2017-12-26T08:21:24.739Z,996.86
2017-12-26T08:22:24.725Z,996.86
2017-12-26T08:23:24.711Z,996.99
2017-12-26T08:24:24.700Z,996.95
2017-12-26T08:25:24.688Z,997.01
2017-12-26T08:26:24.676Z,997.00
2017-12-26T08:27:24.664Z,996.96
2017-12-26T08:28:24.652Z,996.98
2017-12-26T08:29:24.642Z,996.96
2017-12-26T08:30:24.635Z,996.91
2017-12-26T08:31:24.621Z,996.95
2017-12-26T08:32:24.610Z,996.88
2017-12-26T08:33:24.600Z,996.88
2017-12-26T08:34:24.588Z,996.92
2017-12-26T08:35:24.578Z,996.96
2017-12-26T08:36:24.569Z,996.95
2017-12-26T08:37:24.553Z,996.94
2017-12-26T08:38:24.536Z,996.93
2017-12-26T08:39:24.529Z,997.03
2017-12-26T08:40:24.513Z,996.95
2017-12-26T08:41:24.502Z,996.99
2017-12-26T08:42:24.490Z,996.96
2017-12-26T08:43:24.479Z,996.90
2017-12-26T08:44:24.467Z,996.96
2017-12-26T08:45:24.455Z,996.96
2017-12-26T08:46:24.448Z,996.95
2017-12-26T08:47:24.441Z,997.02
2017-12-26T08:48:24.425Z,997.02
2017-12-26T08:49:24.412Z,997.03
2017-12-26T08:50:24.402Z,997.07
2017-12-26T08:51:24.390Z,997.05
2017-12-26T08:52:24.377Z,997.09
2017-12-26T08:53:24.366Z,997.02
2017-12-26T08:54:24.350Z,997.09
2017-12-26T08:55:24.340Z,997.05
2017-12-26T08:56:24.326Z,997.01
2017-12-26T08:57:24.314Z,997.05
2017-12-26T08:58:24.304Z,997.02
2017-12-26T08:59:24.292Z,997.00
2017-12-26T09:00:24.280Z,997.02
2017-12-26T09:01:24.269Z,997.03
2017-12-26T09:02:24.262Z,997.01
2017-12-26T09:03:24.250Z,996.95
2017-12-26T09:04:24.237Z,997.05
2017-12-26T09:05:24.227Z,997.08
2017-12-26T09:06:24.214Z,997.06
2017-12-26T09:07:24.204Z,997.07
2017-12-26T09:08:24.191Z,997.07
2017-12-26T09:09:24.180Z,997.06
2017-12-26T09:10:24.164Z,997.09
2017-12-26T09:11:24.153Z,997.12
2017-12-26T09:12:24.140Z,997.11
2017-12-26T09:13:24.130Z,997.21
2017-12-26T09:14:24.117Z,997.15
2017-12-26T09:15:24.106Z,997.21
2017-12-26T09:16:24.094Z,997.11
2017-12-26T09:17:24.083Z,997.14
2017-12-26T09:18:24.075Z,997.09
2017-12-26T09:19:24.064Z,997.08
2017-12-26T09:20:24.052Z,997.11
2017-12-26T09:21:24.041Z,997.02
2017-12-26T09:22:24.030Z,996.93
2017-12-26T09:23:24.017Z,997.06
2017-12-26T09:24:24.007Z,997.09
2017-12-26T09:25:23.995Z,997.14
2017-12-26T09:26:23.980Z,997.14
2017-12-26T09:27:23.967Z,997.23
2017-12-26T09:28:23.957Z,997.26
2017-12-26T09:29:23.944Z,997.25
2017-12-26T09:30:23.934Z,997.20
2017-12-26T09:31:23.921Z,997.23
2017-12-26T09:32:23.911Z,997.18
2017-12-26T09:33:23.898Z,997.24
2017-12-26T09:34:23.893Z,997.20
2017-12-26T09:35:23.882Z,997.29
2017-12-26T09:36:23.869Z,997.21
2017-12-26T09:37:23.858Z,997.31
2017-12-26T09:38:23.846Z,997.28
2017-12-26T09:39:23.834Z,997.29
2017-12-26T09:40:23.823Z,997.28
2017-12-26T09:41:23.811Z,997.27
2017-12-26T09:42:23.796Z,997.30
2017-12-26T09:43:23.784Z,997.24
2017-12-26T09:44:23.773Z,997.29
2017-12-26T09:45:23.761Z,997.29
2017-12-26T09:46:23.749Z,997.25
2017-12-26T09:47:23.737Z,997.22
2017-12-26T09:48:23.727Z,997.27
2017-12-26T09:49:23.715Z,997.32
2017-12-26T09:50:23.709Z,997.23
2017-12-26T09:51:23.698Z,997.36
2017-12-26T09:52:23.687Z,997.33
2017-12-26T09:53:23.679Z,997.31
2017-12-26T09:54:23.663Z,997.35
2017-12-26T09:55:23.650Z,997.36
2017-12-26T09:56:23.640Z,997.33
2017-12-26T09:57:23.629Z,997.34
2017-12-26T09:58:23.613Z,997.40
2017-12-26T09:59:23.602Z,997.40
2017-12-26T10:00:23.590Z,997.45
2017-12-26T10:01:23.580Z,997.42
2017-12-26T10:02:23.568Z,997.37
2017-12-26T10:03:23.560Z,997.44
2017-12-26T10:04:23.546Z,997.46
2017-12-26T10:05:23.533Z,997.52
2017-12-26T10:06:23.526Z,997.46
2017-12-26T10:07:23.515Z,997.46
2017-12-26T10:08:23.504Z,997.48
2017-12-26T10:09:23.493Z,997.46
2017-12-26T10:10:23.483Z,997.49
2017-12-26T10:11:23.469Z,997.52
2017-12-26T10:12:23.459Z,997.45
2017-12-26T10:13:23.447Z,997.52
2017-12-26T10:14:23.434Z,997.58
2017-12-26T10:15:23.420Z,997.59
2017-12-26T10:16:23.410Z,997.61
2017-12-26T10:17:23.399Z,997.55
2017-12-26T10:18:23.389Z,997.59
2017-12-26T10:19:23.378Z,997.59
2017-12-26T10:20:23.365Z,997.53
2017-12-26T10:21:23.359Z,997.53
2017-12-26T10:22:23.348Z,997.45
2017-12-26T10:23:23.337Z,997.54
2017-12-26T10:24:23.328Z,997.57
2017-12-26T10:25:23.316Z,997.56
2017-12-26T10:26:23.300Z,997.56
2017-12-26T10:27:23.289Z,997.57
2017-12-26T10:28:23.278Z,997.56
2017-12-26T10:29:23.267Z,997.61
2017-12-26T10:30:23.261Z,997.49
2017-12-26T10:31:23.249Z,997.67
2017-12-26T10:32:23.238Z,997.49
2017-12-26T10:33:23.228Z,997.50
2017-12-26T10:34:23.217Z,997.45
2017-12-26T10:35:23.206Z,997.54
2017-12-26T10:36:23.195Z,997.53
2017-12-26T10:37:23.185Z,997.57
2017-12-26T10:38:23.170Z,997.53
2017-12-26T10:39:23.158Z,997.59
2017-12-26T10:40:23.148Z,997.53
2017-12-26T10:41:23.137Z,997.58
2017-12-26T10:42:23.127Z,997.49
2017-12-26T10:43:23.116Z,997.49
2017-12-26T10:44:23.105Z,997.52
2017-12-26T10:45:23.095Z,997.51
2017-12-26T10:46:23.089Z,997.56
2017-12-26T10:47:23.078Z,997.53
2017-12-26T10:48:23.067Z,997.50
2017-12-26T10:49:23.057Z,997.55
2017-12-26T10:50:23.063Z,997.55
2017-12-26T10:51:23.036Z,997.55
2017-12-26T10:52:23.026Z,997.53
2017-12-26T10:53:23.020Z,997.57
2017-12-26T10:54:23.002Z,997.57
2017-12-26T10:55:22.991Z,997.55
2017-12-26T10:56:22.981Z,997.53
2017-12-26T10:57:22.970Z,997.50
2017-12-26T10:58:22.961Z,997.51
2017-12-26T10:59:22.950Z,997.45
2017-12-26T11:00:22.941Z,997.46
2017-12-26T11:01:22.930Z,997.52
2017-12-26T11:02:22.925Z,997.52
2017-12-26T11:03:22.915Z,997.53
2017-12-26T11:04:22.905Z,997.39
2017-12-26T11:05:22.896Z,997.46
2017-12-26T11:06:22.885Z,997.47
2017-12-26T11:07:22.877Z,997.48
2017-12-26T11:08:22.867Z,997.52
2017-12-26T11:09:22.858Z,997.61
2017-12-26T11:10:22.844Z,997.50
2017-12-26T11:11:22.837Z,997.57
2017-12-26T11:12:22.825Z,997.52
2017-12-26T11:13:22.816Z,997.61
2017-12-26T11:14:22.809Z,997.64
2017-12-26T11:15:22.798Z,997.62
2017-12-26T11:16:22.791Z,997.53
2017-12-26T11:17:22.782Z,997.56
2017-12-26T11:18:22.778Z,997.69
2017-12-26T11:19:22.769Z,997.61
2017-12-26T11:20:22.762Z,997.67
2017-12-26T11:21:22.753Z,997.67
2017-12-26T11:22:22.745Z,997.65
2017-12-26T11:23:22.737Z,997.66
2017-12-26T11:24:22.729Z,997.66
2017-12-26T11:25:22.720Z,997.61
2017-12-26T11:26:22.709Z,997.64
2017-12-26T11:27:22.700Z,997.70
2017-12-26T11:28:22.691Z,997.66
2017-12-26T11:29:22.683Z,997.72
2017-12-26T11:30:22.679Z,997.73
2017-12-26T11:31:22.670Z,997.65
2017-12-26T11:32:22.661Z,997.67
2017-12-26T11:33:22.653Z,997.77
2017-12-26T11:34:22.640Z,997.68
2017-12-26T11:35:22.631Z,997.65
2017-12-26T11:36:22.622Z,997.66
2017-12-26T11:37:22.614Z,997.68
2017-12-26T11:38:22.605Z,997.71
2017-12-26T11:39:22.594Z,997.73
2017-12-26T11:40:22.586Z,997.68
2017-12-26T11:41:22.577Z,997.67
2017-12-26T11:42:22.572Z,997.68
2017-12-26T11:43:22.563Z,997.71
2017-12-26T11:44:22.554Z,997.66
2017-12-26T11:45:22.545Z,997.67
2017-12-26T11:46:22.536Z,997.68
2017-12-26T11:47:22.526Z,997.64
2017-12-26T11:48:22.517Z,997.64
2017-12-26T11:49:22.508Z,997.66
2017-12-26T11:50:22.495Z,997.72
2017-12-26T11:51:22.485Z,997.68
2017-12-26T11:52:22.476Z,997.66
2017-12-26T11:53:22.467Z,997.59
2017-12-26T11:54:22.458Z,997.62
2017-12-26T11:55:22.448Z,997.72
2017-12-26T11:56:22.439Z,997.70
2017-12-26T11:57:22.430Z,997.66
2017-12-26T11:58:22.431Z,997.64
2017-12-26T11:59:22.416Z,997.62
2017-12-26T12:00:22.407Z,997.65
2017-12-26T12:01:22.397Z,997.67
2017-12-26T12:02:22.391Z,997.72
2017-12-26T12:03:22.378Z,997.82
2017-12-26T12:04:22.370Z,997.65
2017-12-26T12:05:22.363Z,997.66
2017-12-26T12:06:22.346Z,997.76
2017-12-26T12:07:22.343Z,997.66
2017-12-26T12:08:22.329Z,997.65
2017-12-26T12:09:22.318Z,997.71
2017-12-26T12:10:22.308Z,997.62
2017-12-26T12:11:22.298Z,997.68
2017-12-26T12:12:22.288Z,997.60
2017-12-26T12:13:22.279Z,997.60
2017-12-26T12:14:22.273Z,997.59
2017-12-26T12:15:22.263Z,997.65
2017-12-26T12:16:22.254Z,997.61
2017-12-26T12:17:22.243Z,997.72
2017-12-26T12:18:22.234Z,997.55
2017-12-26T12:19:22.222Z,997.58
2017-12-26T12:20:22.213Z,997.56
2017-12-26T12:21:22.204Z,997.56
2017-12-26T12:22:22.190Z,997.56
2017-12-26T12:23:22.178Z,997.61
2017-12-26T12:24:22.173Z,997.52
2017-12-26T12:25:22.160Z,997.43